Troy, AL (36079)

3:26 PM CDT on August 29, 2016 (GMT -0500)
APRSWXNET | | Change Station

Elev 528 ft 31.80 °N, 85.95 °W | Updated 29 minutes ago

Scattered Clouds
Scattered Clouds
92 °F
Feels Like 102 °F
N
0
Wind Variable Wind from ENE
Gusts 7.0 mph

Today
High -- | Low -- °F
--% Chance of Precip.
Yesterday
High -- | Low -- °F
Precip. -- in
Pressure 30.00 in
Visibility 10.0 miles
Clouds Few 5000 ft
Scattered Clouds 6500 ft
Heat Index 102 °F
Dew Point 74 °F
Humidity 56%
Rainfall in
Snow Depth Not available.
6:17 AM 7:10 PM
Waning Crescent, 7% visible
METAR KTOI 291953Z AUTO 09009KT 10SM FEW050 SCT065 33/22 A3002 RMK AO2 SLP158 T03330217
Pressure 30.00 in
Visibility 10.0 miles
Clouds Few 5000 ft
Scattered Clouds 6500 ft
Heat Index 102 °F
Dew Point 74 °F
Humidity 56%
Rainfall in
Snow Depth Not available.
6:17 AM 7:10 PM
Waning Crescent, 7% visible
METAR KTOI 291953Z AUTO 09009KT 10SM FEW050 SCT065 33/22 A3002 RMK AO2 SLP158 T03330217
Tropical Depression Nine was centered about 170 miles west-southwest of Key West, Florida, as of late Monday morning. The depression may struggle a bit in the southern Gulf of Mexico before finally making a Gulf Coast landfall later this week with soaking rain and gusty winds.

This latest system was designated a tropical depression Sunday after a Hurricane Hunter reconnaissance mission finally found a sufficiently organized low-pressure center with collocated shower and thunderstorm activity.

10-Day Weather Forecast

Almanac

Astronomy

Aug. 29, 2016 Rise Set
Actual Time
Civil Twilight
Nautical Twilight
Astronomical Twilight
Moon
Length of Visible Light
Length of Day
Tomorrow will be .
, % of the Moon is Illuminated

Today's Extremes

State Highs State Lows

Community

WunderPhotos

Upload Photos

1,935,659 photos uploaded!

WunderBlog® & News

Nearby

Air Quality

  Air Quality AQ Index Pollutant
Not available.

Snow Depth

Station Depth Elevation

Earthquake Activity

City Distance Mag. Time & Date
Minimum magnitude displayed is 2.5.

Coastal Water Temperatures

Place Temperature

Stations

Nearby Weather Stations

Station Location Temp. Windchill Dew Point Humidity Wind Precip. Elev Updated Type
                   

Watches & Warnings

There are currently no watches in effect.